createdAt,value
2019-03-28T00:01:09.251Z,96.25
2019-03-28T00:03:39.945Z,96.53
2019-03-28T00:06:10.669Z,96.82
2019-03-28T00:08:41.400Z,96.85
2019-03-28T00:11:12.459Z,96.91
2019-03-28T00:13:43.804Z,96.50
2019-03-28T00:16:15.010Z,96.25
2019-03-28T00:18:45.737Z,96.32
2019-03-28T00:21:16.455Z,96.17
2019-03-28T00:23:55.995Z,96.42
2019-03-28T00:26:30.376Z,96.72
2019-03-28T00:29:00.104Z,96.91
2019-03-28T00:31:30.831Z,96.85
2019-03-28T00:34:01.594Z,97.02
2019-03-28T00:36:32.620Z,97.08
2019-03-28T00:39:04.039Z,97.16
2019-03-28T00:41:35.338Z,96.98
2019-03-28T00:44:06.730Z,96.94
2019-03-28T00:46:38.022Z,96.77
2019-03-28T00:49:08.739Z,96.59
2019-03-28T00:51:40.691Z,96.67
2019-03-28T00:54:12.799Z,96.77
2019-03-28T00:56:47.267Z,96.72
2019-03-28T00:59:16.729Z,96.75
2019-03-28T01:01:48.043Z,96.74
2019-03-28T01:04:19.334Z,96.80
2019-03-28T01:06:50.028Z,96.43
2019-03-28T01:09:21.366Z,96.21
2019-03-28T01:11:52.859Z,96.11
2019-03-28T01:14:23.566Z,96.11
2019-03-28T01:16:54.994Z,96.06
2019-03-28T01:19:25.771Z,95.90
2019-03-28T01:21:56.772Z,95.88
2019-03-28T01:24:27.479Z,95.95
2019-03-28T01:26:58.948Z,95.89
2019-03-28T01:29:30.135Z,95.83
2019-03-28T01:32:01.194Z,95.78
2019-03-28T01:34:33.148Z,95.63
2019-03-28T01:37:04.532Z,95.63
2019-03-28T01:39:35.535Z,95.85
2019-03-28T01:42:06.555Z,95.84
2019-03-28T01:44:37.609Z,96.02
2019-03-28T01:47:08.919Z,95.92
2019-03-28T01:49:39.892Z,95.95
2019-03-28T01:52:10.923Z,95.95
2019-03-28T01:54:42.295Z,95.75
2019-03-28T01:57:13.427Z,95.61
2019-03-28T01:59:44.439Z,95.52
2019-03-28T02:02:15.125Z,95.70
2019-03-28T02:04:46.156Z,95.81
2019-03-28T02:07:17.793Z,95.76
2019-03-28T02:09:48.556Z,95.71
2019-03-28T02:12:19.296Z,95.68
2019-03-28T02:14:50.573Z,95.64
2019-03-28T02:17:21.618Z,95.56
2019-03-28T02:19:52.426Z,95.78
2019-03-28T02:22:23.221Z,95.92
2019-03-28T02:24:54.254Z,96.15
2019-03-28T02:27:25.998Z,96.12
2019-03-28T02:29:58.327Z,96.25
2019-03-28T02:32:29.432Z,96.72
2019-03-28T02:35:00.567Z,97.17
2019-03-28T02:37:31.521Z,97.50
2019-03-28T02:40:02.891Z,97.89
2019-03-28T02:42:33.916Z,98.24
2019-03-28T02:45:06.029Z,98.62
2019-03-28T02:47:37.279Z,98.90
2019-03-28T02:50:08.530Z,99.08
2019-03-28T02:52:40.193Z,99.17
2019-03-28T02:55:11.348Z,99.25
2019-03-28T02:57:43.887Z,99.27
2019-03-28T03:00:15.104Z,99.44
2019-03-28T03:02:46.443Z,99.60
2019-03-28T03:05:17.287Z,99.58
2019-03-28T03:07:48.361Z,99.51
2019-03-28T03:10:19.389Z,99.48
2019-03-28T03:12:50.151Z,99.36
2019-03-28T03:15:20.877Z,99.29
2019-03-28T03:17:51.641Z,99.36
2019-03-28T03:20:22.866Z,99.35
2019-03-28T03:22:54.535Z,99.23
2019-03-28T03:25:26.037Z,99.24
2019-03-28T03:27:59.139Z,99.13
2019-03-28T03:30:31.661Z,98.86
2019-03-28T03:33:03.147Z,98.50
2019-03-28T03:35:34.457Z,98.38
2019-03-28T03:38:05.416Z,98.16
2019-03-28T03:40:36.767Z,97.99
2019-03-28T03:43:07.829Z,97.93
2019-03-28T03:45:39.725Z,97.77
2019-03-28T03:48:11.994Z,97.74
2019-03-28T03:50:43.086Z,97.45
2019-03-28T03:53:14.430Z,97.30
2019-03-28T03:55:45.750Z,97.35
2019-03-28T03:58:17.840Z,97.53
2019-03-28T04:00:49.431Z,97.65
2019-03-28T04:03:29.547Z,97.84
2019-03-28T04:06:01.396Z,97.94
2019-03-28T04:08:33.007Z,98.03
2019-03-28T04:11:03.805Z,97.89
2019-03-28T04:13:34.506Z,97.73
2019-03-28T04:16:05.220Z,97.85
2019-03-28T04:18:36.323Z,97.87
2019-03-28T04:21:07.019Z,97.87
2019-03-28T04:23:38.106Z,97.97
2019-03-28T04:26:08.811Z,98.12
2019-03-28T04:28:39.861Z,98.28
2019-03-28T04:31:10.960Z,98.41
2019-03-28T04:33:41.667Z,98.49
2019-03-28T04:36:12.804Z,98.59
2019-03-28T04:38:43.539Z,98.53
2019-03-28T04:41:14.584Z,98.62
2019-03-28T04:43:45.900Z,98.74
2019-03-28T04:46:17.478Z,98.74
2019-03-28T04:48:50.790Z,98.71
2019-03-28T04:51:21.259Z,98.59
2019-03-28T04:53:55.999Z,98.58
2019-03-28T04:56:25.345Z,98.25
2019-03-28T04:58:56.046Z,98.13
2019-03-28T05:01:27.443Z,97.97
2019-03-28T05:03:58.990Z,97.85
2019-03-28T05:06:29.718Z,97.88
2019-03-28T05:09:01.153Z,97.88
2019-03-28T05:11:32.190Z,97.95
2019-03-28T05:14:02.882Z,98.05
2019-03-28T05:16:33.989Z,97.87
2019-03-28T05:19:04.950Z,97.88
2019-03-28T05:21:36.066Z,97.76
2019-03-28T05:24:06.923Z,97.78
2019-03-28T05:26:38.178Z,97.61
2019-03-28T05:29:09.591Z,97.31
2019-03-28T05:31:40.607Z,97.20
2019-03-28T05:34:11.618Z,96.96
2019-03-28T05:36:42.688Z,97.04
2019-03-28T05:39:13.724Z,97.00
2019-03-28T05:41:44.413Z,96.98
2019-03-28T05:44:15.519Z,96.61
2019-03-28T05:46:46.566Z,96.44
2019-03-28T05:49:18.141Z,95.84
2019-03-28T05:51:49.154Z,95.89
2019-03-28T05:54:19.862Z,95.47
2019-03-28T05:57:09.778Z,94.93
2019-03-28T05:59:40.760Z,94.83
2019-03-28T06:02:12.639Z,94.67
2019-03-28T06:04:43.349Z,94.47
2019-03-28T06:07:14.026Z,94.44
2019-03-28T06:09:45.346Z,94.56
2019-03-28T06:12:18.903Z,93.82
2019-03-28T06:14:48.631Z,93.37
2019-03-28T06:17:19.929Z,93.00
2019-03-28T06:19:51.240Z,92.90
2019-03-28T06:22:22.493Z,92.64
2019-03-28T06:24:53.273Z,92.67
2019-03-28T06:27:24.018Z,92.65
2019-03-28T06:29:54.722Z,92.77
2019-03-28T06:32:25.407Z,92.81
2019-03-28T06:34:56.500Z,92.71
2019-03-28T06:37:27.515Z,92.42
2019-03-28T06:39:58.553Z,92.10
2019-03-28T06:42:29.775Z,92.67
2019-03-28T06:45:03.243Z,92.54
2019-03-28T06:47:33.562Z,92.21
2019-03-28T06:50:05.246Z,91.34
2019-03-28T06:52:36.013Z,90.41
2019-03-28T06:55:07.754Z,90.60
2019-03-28T06:57:38.851Z,89.24
2019-03-28T07:00:10.827Z,89.73
2019-03-28T07:02:41.525Z,89.90
2019-03-28T07:05:12.746Z,90.12
2019-03-28T07:07:44.236Z,89.58
2019-03-28T07:10:15.402Z,89.53
2019-03-28T07:12:46.402Z,88.71
2019-03-28T07:15:17.730Z,89.26
2019-03-28T07:17:49.104Z,88.22
2019-03-28T07:20:19.992Z,87.59
2019-03-28T07:22:50.947Z,88.11
2019-03-28T07:25:21.989Z,88.73
2019-03-28T07:27:53.266Z,89.15
2019-03-28T07:30:24.754Z,89.38
2019-03-28T07:32:55.441Z,89.19
2019-03-28T07:35:26.580Z,89.24
2019-03-28T07:37:57.395Z,88.84
2019-03-28T07:40:28.791Z,88.17
2019-03-28T07:42:59.870Z,87.78
2019-03-28T07:45:30.815Z,87.80
2019-03-28T07:48:01.776Z,87.30
2019-03-28T07:50:33.554Z,87.54
2019-03-28T07:53:04.426Z,87.28
2019-03-28T07:55:35.139Z,86.37
2019-03-28T07:58:07.437Z,86.35
2019-03-28T08:00:38.532Z,85.65
2019-03-28T08:03:09.568Z,85.02
2019-03-28T08:05:40.285Z,84.10
2019-03-28T08:08:12.194Z,83.57
2019-03-28T08:10:43.289Z,83.20
2019-03-28T08:13:14.894Z,83.53
2019-03-28T08:15:46.104Z,83.33
2019-03-28T08:18:17.283Z,83.37
2019-03-28T08:20:48.323Z,82.91
2019-03-28T08:23:19.030Z,80.49
2019-03-28T08:25:50.097Z,80.64
2019-03-28T08:28:21.144Z,82.17
2019-03-28T08:30:51.892Z,81.54
2019-03-28T08:33:22.717Z,81.05
2019-03-28T08:35:54.286Z,79.82
2019-03-28T08:38:26.948Z,80.76
2019-03-28T08:40:57.720Z,80.09
2019-03-28T08:43:28.822Z,79.76
2019-03-28T08:45:59.536Z,80.37
2019-03-28T08:48:30.337Z,79.89
2019-03-28T08:51:01.343Z,79.17
2019-03-28T08:53:32.293Z,78.74
2019-03-28T08:56:03.294Z,78.01
2019-03-28T08:58:34.043Z,77.11
2019-03-28T09:01:06.105Z,75.43
2019-03-28T09:03:36.884Z,75.57
2019-03-28T09:06:08.104Z,72.77
2019-03-28T09:08:38.814Z,72.99
2019-03-28T09:11:10.068Z,70.21
2019-03-28T09:13:40.793Z,65.92
2019-03-28T09:16:11.486Z,66.03
2019-03-28T09:18:42.475Z,67.01
2019-03-28T09:21:13.804Z,67.18
2019-03-28T09:23:44.845Z,64.07
2019-03-28T09:26:15.910Z,63.29
2019-03-28T09:28:47.051Z,65.69
2019-03-28T09:31:20.105Z,66.83
2019-03-28T09:33:50.288Z,60.33
2019-03-28T09:36:21.284Z,56.45
2019-03-28T09:38:51.989Z,49.24
2019-03-28T09:41:23.017Z,51.78
2019-03-28T09:43:55.786Z,54.38
2019-03-28T09:46:26.589Z,49.73
2019-03-28T09:48:57.633Z,48.75
2019-03-28T09:51:28.663Z,54.73
2019-03-28T09:53:59.402Z,54.77
2019-03-28T09:56:30.175Z,53.16
2019-03-28T09:59:01.231Z,55.21
2019-03-28T10:01:31.948Z,55.44
2019-03-28T10:04:06.411Z,54.66
2019-03-28T10:06:36.779Z,55.40
2019-03-28T10:09:09.143Z,57.00
2019-03-28T10:11:40.966Z,57.54
2019-03-28T10:14:11.993Z,58.96
2019-03-28T10:16:43.371Z,58.96
2019-03-28T10:19:14.103Z,59.79
2019-03-28T10:21:45.267Z,60.20
2019-03-28T10:24:16.616Z,61.12
2019-03-28T10:26:47.625Z,62.64
2019-03-28T10:29:18.573Z,63.39
2019-03-28T10:31:49.348Z,62.30
2019-03-28T10:34:20.708Z,62.03
2019-03-28T10:36:51.444Z,61.09
2019-03-28T10:39:22.150Z,61.21
2019-03-28T10:41:54.724Z,63.13
2019-03-28T10:44:26.235Z,63.57
2019-03-28T10:46:56.926Z,64.38
2019-03-28T10:49:28.124Z,64.85
2019-03-28T10:51:59.523Z,66.60
2019-03-28T10:54:30.881Z,65.99
2019-03-28T10:57:13.135Z,66.07
2019-03-28T10:59:34.764Z,66.58
2019-03-28T11:02:06.346Z,67.12
2019-03-28T11:04:37.381Z,67.00
2019-03-28T11:07:08.408Z,67.82
2019-03-28T11:09:39.557Z,68.75
2019-03-28T11:12:10.573Z,68.35
2019-03-28T11:14:41.261Z,69.18
2019-03-28T11:17:12.610Z,69.60
2019-03-28T11:19:44.268Z,69.41
2019-03-28T11:22:15.670Z,68.92
2019-03-28T11:24:46.642Z,69.34
2019-03-28T11:27:17.394Z,68.51
2019-03-28T11:29:48.420Z,67.93
2019-03-28T11:32:19.580Z,68.62
2019-03-28T11:34:50.408Z,67.09
2019-03-28T11:37:26.346Z,66.43
2019-03-28T11:39:54.186Z,65.92
2019-03-28T11:42:24.864Z,65.20
2019-03-28T11:44:55.984Z,64.90
2019-03-28T11:47:27.161Z,66.86
2019-03-28T11:49:58.198Z,68.20
2019-03-28T11:52:29.571Z,69.74
2019-03-28T11:55:00.866Z,70.65
2019-03-28T11:57:32.213Z,68.88
2019-03-28T12:00:03.487Z,66.93
2019-03-28T12:02:34.470Z,65.86
2019-03-28T12:05:06.126Z,64.62
2019-03-28T12:07:37.270Z,60.80
2019-03-28T12:10:09.449Z,61.60
2019-03-28T12:12:40.186Z,62.70
2019-03-28T12:15:14.031Z,62.53
2019-03-28T12:17:45.148Z,63.43
2019-03-28T12:20:16.566Z,63.82
2019-03-28T12:22:47.561Z,64.81
2019-03-28T12:25:18.655Z,62.54
2019-03-28T12:27:49.418Z,63.47
2019-03-28T12:30:20.544Z,63.82
2019-03-28T12:32:51.271Z,65.84
2019-03-28T12:35:22.046Z,67.18
2019-03-28T12:37:52.764Z,67.92
2019-03-28T12:40:23.493Z,68.35
2019-03-28T12:42:55.210Z,70.31
2019-03-28T12:45:26.589Z,68.71
2019-03-28T12:47:57.474Z,68.38
2019-03-28T12:50:28.558Z,68.69
2019-03-28T12:52:59.321Z,68.90
2019-03-28T12:55:31.051Z,68.86
2019-03-28T12:58:02.105Z,71.19
2019-03-28T13:00:37.711Z,70.72
2019-03-28T13:03:08.677Z,69.96
2019-03-28T13:05:39.663Z,69.77
2019-03-28T13:08:11.187Z,69.71
2019-03-28T13:10:43.045Z,68.56
2019-03-28T13:13:14.060Z,69.02
2019-03-28T13:15:44.828Z,69.82
2019-03-28T13:18:16.055Z,68.95
2019-03-28T13:20:49.712Z,69.23
2019-03-28T13:23:21.733Z,69.08
2019-03-28T13:25:52.403Z,68.92
2019-03-28T13:28:23.118Z,68.58
2019-03-28T13:30:54.213Z,68.84
2019-03-28T13:33:25.287Z,68.69
2019-03-28T13:35:57.866Z,69.18
2019-03-28T13:38:29.009Z,70.11
2019-03-28T13:40:59.803Z,70.68
2019-03-28T13:43:30.786Z,70.07
2019-03-28T13:46:01.660Z,70.13
2019-03-28T13:48:32.418Z,71.09
2019-03-28T13:51:03.078Z,70.13
2019-03-28T13:53:39.724Z,70.93
2019-03-28T13:56:06.354Z,71.80
2019-03-28T13:58:36.996Z,71.20
2019-03-28T14:01:08.226Z,71.76
2019-03-28T14:03:38.917Z,71.21
2019-03-28T14:06:09.692Z,71.00
2019-03-28T14:08:40.382Z,70.08
2019-03-28T14:11:11.131Z,70.53
2019-03-28T14:13:41.819Z,70.28
2019-03-28T14:16:12.613Z,69.70
2019-03-28T14:18:43.276Z,69.60
2019-03-28T14:21:14.429Z,68.65
2019-03-28T14:23:45.433Z,67.47
2019-03-28T14:26:16.184Z,67.83
2019-03-28T14:28:46.842Z,67.53
2019-03-28T14:31:17.536Z,66.88
2019-03-28T14:33:48.267Z,66.60
2019-03-28T14:36:18.960Z,67.44
2019-03-28T14:38:49.604Z,65.46
2019-03-28T14:41:20.723Z,66.87
2019-03-28T14:43:51.456Z,67.00
2019-03-28T14:46:22.150Z,66.83
2019-03-28T14:48:53.328Z,67.58
2019-03-28T14:51:26.473Z,69.24
2019-03-28T14:53:57.492Z,69.22
2019-03-28T14:56:28.674Z,69.09
2019-03-28T14:59:00.118Z,68.96
2019-03-28T15:01:30.902Z,69.20
2019-03-28T15:04:02.568Z,69.75
2019-03-28T15:06:33.312Z,70.43
2019-03-28T15:09:06.318Z,70.87
2019-03-28T15:11:37.732Z,71.11
2019-03-28T15:14:08.587Z,71.76
2019-03-28T15:16:39.290Z,71.26
2019-03-28T15:19:10.367Z,71.49
2019-03-28T15:21:41.486Z,70.62
2019-03-28T15:24:12.810Z,71.32
2019-03-28T15:26:43.643Z,70.62
2019-03-28T15:29:14.780Z,69.56
2019-03-28T15:31:49.974Z,69.98
2019-03-28T15:34:20.731Z,69.45
2019-03-28T15:36:51.703Z,71.33
2019-03-28T15:39:22.757Z,72.53
2019-03-28T15:41:53.916Z,73.00
2019-03-28T15:44:24.971Z,74.73
2019-03-28T15:46:56.175Z,76.85
2019-03-28T15:49:27.792Z,77.30
2019-03-28T15:51:58.545Z,78.71
2019-03-28T15:54:29.500Z,78.96
2019-03-28T15:57:01.447Z,81.21
2019-03-28T15:59:32.706Z,81.45
2019-03-28T16:02:03.758Z,80.87
2019-03-28T16:04:34.451Z,80.83
2019-03-28T16:07:05.201Z,80.72
2019-03-28T16:09:35.885Z,81.19
2019-03-28T16:12:06.621Z,81.09
2019-03-28T16:14:37.283Z,81.41
2019-03-28T16:17:08.111Z,81.18
2019-03-28T16:19:38.838Z,80.79
2019-03-28T16:22:09.544Z,81.66
2019-03-28T16:24:40.234Z,80.93
2019-03-28T16:27:11.204Z,80.71
2019-03-28T16:29:41.923Z,81.22
2019-03-28T16:32:15.987Z,82.00
2019-03-28T16:38:33.637Z,82.15
2019-03-28T16:41:04.470Z,82.61
2019-03-28T16:43:35.418Z,82.41
2019-03-28T16:46:07.711Z,82.86
2019-03-28T16:48:38.590Z,84.06
2019-03-28T16:51:09.330Z,85.12
2019-03-28T16:53:40.063Z,86.63
2019-03-28T16:56:11.090Z,87.53
2019-03-28T16:58:41.809Z,88.49
2019-03-28T17:01:12.522Z,88.55
2019-03-28T17:03:43.423Z,89.17
2019-03-28T17:06:14.278Z,89.96
2019-03-28T17:08:46.958Z,90.65
2019-03-28T17:11:17.707Z,91.20
2019-03-28T17:13:48.389Z,92.21
2019-03-28T17:16:19.548Z,92.79
2019-03-28T17:18:52.446Z,93.34
2019-03-28T17:21:23.554Z,93.91
2019-03-28T17:23:54.727Z,94.19
2019-03-28T17:26:25.853Z,94.12
2019-03-28T17:28:56.855Z,94.26
2019-03-28T17:31:27.806Z,94.29
2019-03-28T17:33:58.657Z,94.05
2019-03-28T17:36:29.549Z,93.85
2019-03-28T17:39:00.292Z,93.83
2019-03-28T17:41:31.767Z,93.96
2019-03-28T17:44:02.985Z,93.83
2019-03-28T17:46:33.944Z,93.97
2019-03-28T17:49:04.681Z,93.93
2019-03-28T17:51:35.734Z,93.63
2019-03-28T17:54:06.619Z,93.28
2019-03-28T17:56:37.358Z,92.97
2019-03-28T17:59:08.466Z,92.66
2019-03-28T18:01:39.189Z,92.63
2019-03-28T18:04:22.225Z,92.46
2019-03-28T18:06:42.280Z,92.50
2019-03-28T18:09:13.065Z,92.52
2019-03-28T18:11:43.974Z,92.08
2019-03-28T18:14:14.693Z,91.87
2019-03-28T18:16:45.601Z,91.57
2019-03-28T18:19:16.597Z,91.15
2019-03-28T18:21:47.334Z,90.95
2019-03-28T18:24:18.450Z,90.67
2019-03-28T18:26:49.187Z,90.44
2019-03-28T18:29:19.980Z,90.57
2019-03-28T18:31:52.649Z,90.92
2019-03-28T18:34:24.262Z,91.00
2019-03-28T18:36:54.996Z,90.88
2019-03-28T18:39:25.748Z,90.83
2019-03-28T18:41:56.761Z,90.74
2019-03-28T18:44:27.465Z,90.72
2019-03-28T18:46:59.106Z,90.58
2019-03-28T18:49:30.954Z,90.42
2019-03-28T18:52:01.956Z,90.41
2019-03-28T18:54:32.816Z,90.31
2019-03-28T18:57:03.532Z,90.15
2019-03-28T18:59:34.282Z,89.77
2019-03-28T19:02:05.106Z,89.55
2019-03-28T19:04:35.905Z,89.67
2019-03-28T19:07:07.408Z,89.90
2019-03-28T19:09:38.333Z,89.67
2019-03-28T19:12:09.517Z,89.77
2019-03-28T19:14:40.342Z,89.82
2019-03-28T19:17:11.305Z,89.71
2019-03-28T19:19:42.048Z,89.78
2019-03-28T19:22:13.127Z,89.69
2019-03-28T19:24:43.817Z,89.32
2019-03-28T19:27:14.625Z,89.28
2019-03-28T19:29:45.647Z,89.23
2019-03-28T19:32:16.431Z,89.40
2019-03-28T19:34:47.727Z,89.38
2019-03-28T19:37:22.627Z,89.22
2019-03-28T19:39:51.880Z,88.85
2019-03-28T19:42:22.881Z,88.83
2019-03-28T19:44:54.690Z,88.48
2019-03-28T19:47:28.615Z,88.24
2019-03-28T19:49:58.565Z,87.95
2019-03-28T19:52:29.549Z,88.34
2019-03-28T19:55:00.403Z,88.51
2019-03-28T19:57:31.184Z,88.55
2019-03-28T20:00:02.016Z,88.54
2019-03-28T20:02:33.702Z,88.55
2019-03-28T20:05:05.065Z,88.87
2019-03-28T20:07:36.095Z,89.03
2019-03-28T20:10:16.112Z,89.09
2019-03-28T20:12:40.326Z,89.29
2019-03-28T20:15:11.535Z,89.10
2019-03-28T20:17:42.441Z,89.02
2019-03-28T20:20:16.157Z,88.96
2019-03-28T20:22:46.903Z,89.25
2019-03-28T20:25:17.683Z,89.25
2019-03-28T20:27:48.385Z,89.25
2019-03-28T20:30:20.735Z,89.24
2019-03-28T20:32:52.338Z,89.39
2019-03-28T20:35:23.281Z,89.31
2019-03-28T20:37:53.939Z,89.15
2019-03-28T20:40:24.759Z,89.26
2019-03-28T20:42:55.422Z,89.24
2019-03-28T20:45:26.172Z,89.16
2019-03-28T20:47:57.228Z,89.34
2019-03-28T20:50:31.721Z,89.61
2019-03-28T20:53:01.975Z,89.63
2019-03-28T20:55:32.655Z,89.67
2019-03-28T20:58:03.427Z,89.76
2019-03-28T21:00:52.266Z,89.97
2019-03-28T21:03:23.062Z,90.31
2019-03-28T21:05:53.789Z,90.34
2019-03-28T21:08:24.477Z,90.19
2019-03-28T21:10:55.246Z,90.15
2019-03-28T21:13:25.979Z,90.30
2019-03-28T21:15:56.679Z,90.53
2019-03-28T21:18:27.362Z,90.48
2019-03-28T21:20:58.332Z,90.26
2019-03-28T21:23:29.009Z,90.17
2019-03-28T21:25:59.674Z,90.07
2019-03-28T21:28:30.470Z,90.22
2019-03-28T21:31:01.407Z,90.09
2019-03-28T21:33:32.146Z,89.99
2019-03-28T21:36:02.881Z,89.88
2019-03-28T21:38:33.563Z,90.05
2019-03-28T21:41:05.354Z,90.05
2019-03-28T21:43:36.098Z,89.99
2019-03-28T21:46:06.889Z,90.11
2019-03-28T21:48:37.839Z,90.23
2019-03-28T21:51:11.444Z,89.98
2019-03-28T21:53:41.241Z,89.98
2019-03-28T21:56:14.302Z,90.03
2019-03-28T21:58:44.661Z,90.11
2019-03-28T22:01:15.317Z,90.26
2019-03-28T22:03:46.227Z,90.38
2019-03-28T22:06:16.890Z,90.66
2019-03-28T22:08:47.614Z,90.61
2019-03-28T22:11:18.264Z,90.57
2019-03-28T22:13:49.462Z,90.38
2019-03-28T22:16:20.143Z,90.34
2019-03-28T22:18:50.807Z,90.13
2019-03-28T22:21:21.570Z,89.85
2019-03-28T22:23:52.518Z,89.90
2019-03-28T22:26:23.148Z,90.02
2019-03-28T22:28:53.831Z,89.58
2019-03-28T22:31:24.535Z,90.00
2019-03-28T22:33:55.198Z,89.69
2019-03-28T22:36:25.930Z,89.83
2019-03-28T22:38:57.261Z,90.09
2019-03-28T22:41:27.946Z,90.53
2019-03-28T22:43:58.961Z,90.86
2019-03-28T22:46:30.168Z,90.74
2019-03-28T22:49:00.917Z,90.96
2019-03-28T22:51:31.876Z,90.97
2019-03-28T22:54:02.664Z,91.00
2019-03-28T22:56:33.374Z,91.09
2019-03-28T22:59:04.129Z,91.16
2019-03-28T23:01:35.336Z,91.09
2019-03-28T23:04:06.399Z,91.15
2019-03-28T23:06:37.783Z,91.19
2019-03-28T23:09:09.037Z,91.11
2019-03-28T23:11:40.589Z,90.92
2019-03-28T23:14:11.491Z,90.82
2019-03-28T23:16:42.487Z,90.93
2019-03-28T23:19:13.171Z,91.14
2019-03-28T23:21:43.826Z,91.04
2019-03-28T23:24:14.853Z,91.04
2019-03-28T23:26:45.511Z,91.09
2019-03-28T23:29:16.575Z,90.81
2019-03-28T23:31:47.232Z,90.75
2019-03-28T23:34:19.205Z,90.71
2019-03-28T23:36:50.218Z,90.80
2019-03-28T23:39:20.847Z,90.57
2019-03-28T23:41:51.562Z,90.81
2019-03-28T23:44:22.488Z,90.80
2019-03-28T23:46:53.138Z,90.87
2019-03-28T23:49:23.816Z,90.67
2019-03-28T23:51:55.087Z,90.46
2019-03-28T23:54:26.810Z,90.53
2019-03-28T23:56:57.630Z,90.57
2019-03-28T23:59:28.480Z,90.67
